createdAt,value
2023-03-10T00:02:01.697Z,7.33
2023-03-10T00:07:05.274Z,6.33
2023-03-10T00:12:10.900Z,7.83
2023-03-10T00:17:14.440Z,6.37
2023-03-10T00:22:17.882Z,5.22
2023-03-10T00:27:22.799Z,6.10
2023-03-10T00:32:26.529Z,5.30
2023-03-10T00:37:29.964Z,5.07
2023-03-10T00:42:35.007Z,5.47
2023-03-10T00:47:38.607Z,4.83
2023-03-10T00:52:42.082Z,5.07
2023-03-10T00:57:46.838Z,5.18
2023-03-10T01:07:55.369Z,4.15
2023-03-10T01:13:00.288Z,5.20
2023-03-10T01:18:05.229Z,4.73
2023-03-10T01:23:08.790Z,4.68
2023-03-10T01:28:13.899Z,3.88
2023-03-10T01:33:18.928Z,4.68
2023-03-10T01:38:22.556Z,3.83
2023-03-10T01:43:37.474Z,5.00
2023-03-10T01:53:44.821Z,4.03
2023-03-10T01:58:51.044Z,5.32
2023-03-10T02:03:58.556Z,6.13
2023-03-10T02:09:05.464Z,4.10
2023-03-10T02:14:10.517Z,3.85
2023-03-10T02:19:28.082Z,4.23
2023-03-10T02:24:40.018Z,3.93
2023-03-10T02:29:58.884Z,3.38
2023-03-10T02:35:03.218Z,4.00
2023-03-10T02:40:32.390Z,3.73
2023-03-10T02:45:40.713Z,3.33
2023-03-10T02:50:48.253Z,3.73
2023-03-10T02:55:52.185Z,4.77
2023-03-10T03:00:57.970Z,3.73
2023-03-10T03:06:01.973Z,3.87
2023-03-10T03:11:06.076Z,3.63
2023-03-10T03:16:12.474Z,5.13
2023-03-10T03:21:17.803Z,3.50
2023-03-10T03:26:23.881Z,3.97
2023-03-10T03:31:28.890Z,5.40
2023-03-10T03:36:32.511Z,5.53
2023-03-10T03:41:36.256Z,4.03
2023-03-10T03:46:41.132Z,5.10
2023-03-10T03:51:44.634Z,3.87
2023-03-10T03:56:47.996Z,4.20
2023-03-10T04:01:52.765Z,4.67
2023-03-10T04:06:56.500Z,5.80
2023-03-10T04:12:00.148Z,4.73
2023-03-10T04:17:05.759Z,5.63
2023-03-10T04:22:09.205Z,5.63
2023-03-10T04:27:12.587Z,6.13
2023-03-10T04:32:17.490Z,7.40
2023-03-10T04:37:22.151Z,7.73
2023-03-10T04:47:31.780Z,7.50
2023-03-10T04:52:35.242Z,8.47
2023-03-10T04:57:38.768Z,8.37
2023-03-10T05:02:43.581Z,7.77
2023-03-10T05:07:46.960Z,6.43
2023-03-10T05:12:50.394Z,6.73
2023-03-10T05:17:55.199Z,5.43
2023-03-10T05:22:58.562Z,6.87
2023-03-10T05:28:02.047Z,7.63
2023-03-10T05:33:06.944Z,7.20
2023-03-10T05:38:10.750Z,7.32
2023-03-10T05:43:16.616Z,10.18
2023-03-10T05:48:22.323Z,8.60
2023-03-10T05:58:29.237Z,9.40
2023-03-10T06:03:34.873Z,7.53
2023-03-10T06:08:38.585Z,8.18
2023-03-10T06:13:42.110Z,8.25
2023-03-10T06:18:47.066Z,9.23
2023-03-10T06:28:53.730Z,8.80
2023-03-10T06:33:59.546Z,7.47
2023-03-10T06:39:02.963Z,9.98
2023-03-10T06:44:06.708Z,10.55
2023-03-10T06:49:11.844Z,9.32
2023-03-10T06:54:15.349Z,9.35
2023-03-10T06:59:19.340Z,9.63
2023-03-10T07:04:24.183Z,7.93
2023-03-10T07:09:29.071Z,8.00
2023-03-10T07:14:32.874Z,10.20
2023-03-10T07:19:38.361Z,8.15
2023-03-10T07:24:41.960Z,9.32
2023-03-10T07:29:45.413Z,6.80
2023-03-10T07:34:52.689Z,8.15
2023-03-10T07:39:56.212Z,6.75
2023-03-10T07:44:59.615Z,16.20
2023-03-10T07:50:04.640Z,15.10
2023-03-10T07:55:08.829Z,8.00
2023-03-10T08:00:13.777Z,6.83
2023-03-10T08:10:21.952Z,9.70
2023-03-10T08:15:26.502Z,8.25
2023-03-10T08:20:32.374Z,7.78
2023-03-10T08:25:35.942Z,7.75
2023-03-10T08:30:56.917Z,7.13
2023-03-10T08:36:12.765Z,6.30
2023-03-10T08:41:19.255Z,5.72
2023-03-10T08:46:24.915Z,7.63
2023-03-10T08:51:30.729Z,6.47
2023-03-10T08:56:34.297Z,8.50
2023-03-10T09:01:39.173Z,5.03
2023-03-10T09:11:47.521Z,6.17
2023-03-10T09:16:51.009Z,5.03
2023-03-10T09:21:57.796Z,6.30
2023-03-10T09:27:01.222Z,5.85
2023-03-10T09:32:06.562Z,4.97
2023-03-10T09:37:12.437Z,5.75
2023-03-10T09:47:51.253Z,4.93
2023-03-10T09:53:03.075Z,5.95
2023-03-10T09:58:07.047Z,6.05
2023-03-10T10:03:18.790Z,4.93
2023-03-10T10:08:29.116Z,5.40
2023-03-10T10:13:35.718Z,4.93
2023-03-10T10:18:43.129Z,3.50
2023-03-10T10:23:50.828Z,4.03
2023-03-10T10:28:57.049Z,5.47
2023-03-10T10:34:02.228Z,4.82
2023-03-10T10:39:27.992Z,6.38
2023-03-10T10:44:41.808Z,6.38
2023-03-10T10:49:45.276Z,4.45
2023-03-10T10:54:57.023Z,4.95
2023-03-10T11:00:18.646Z,5.47
2023-03-10T11:05:24.845Z,5.35
2023-03-10T11:10:34.266Z,3.00
2023-03-10T11:15:49.050Z,3.45
2023-03-10T11:21:00.543Z,4.00
2023-03-10T11:26:13.016Z,3.80
2023-03-10T11:31:30.829Z,3.25
2023-03-10T11:36:55.136Z,3.97
2023-03-10T11:47:19.128Z,4.78
2023-03-10T11:52:26.468Z,3.65
2023-03-10T11:57:37.985Z,3.80
2023-03-10T12:02:49.718Z,3.38
2023-03-10T12:07:55.918Z,3.45
2023-03-10T12:13:02.277Z,3.90
2023-03-10T12:18:07.203Z,4.93
2023-03-10T12:23:42.042Z,3.88
2023-03-10T12:28:46.970Z,3.40
2023-03-10T12:38:58.187Z,3.10
2023-03-10T12:44:04.237Z,3.85
2023-03-10T12:49:33.899Z,3.65
2023-03-10T12:54:49.720Z,3.83
2023-03-10T13:00:03.103Z,4.75
2023-03-10T13:05:19.430Z,3.75
2023-03-10T13:10:30.168Z,4.60
2023-03-10T13:15:35.580Z,5.75
2023-03-10T13:20:39.835Z,3.63
2023-03-10T13:25:53.073Z,5.28
2023-03-10T13:31:11.476Z,4.70
2023-03-10T13:36:35.039Z,4.35
2023-03-10T13:41:42.295Z,4.10
2023-03-10T13:46:52.001Z,5.57
2023-03-10T13:51:57.052Z,5.35
2023-03-10T13:57:17.867Z,4.28
2023-03-10T14:02:28.359Z,7.90
2023-03-10T14:07:33.333Z,4.38
2023-03-10T14:12:38.770Z,5.43
2023-03-10T14:17:46.837Z,4.43
2023-03-10T14:22:50.259Z,5.60
2023-03-10T14:28:00.381Z,5.63
2023-03-10T14:33:12.902Z,5.28
2023-03-10T14:38:16.579Z,4.22
2023-03-10T14:43:23.003Z,5.53
2023-03-10T14:48:29.709Z,4.50
2023-03-10T14:53:33.685Z,4.00
2023-03-10T14:58:45.229Z,3.83
2023-03-10T15:03:50.608Z,4.95
2023-03-10T15:08:54.424Z,5.68
2023-03-10T15:13:58.316Z,4.70
2023-03-10T15:19:03.190Z,8.00
2023-03-10T15:29:14.470Z,4.28
2023-03-10T15:34:20.642Z,4.82
2023-03-10T15:39:31.521Z,7.38
2023-03-10T15:44:36.309Z,7.45
2023-03-10T15:49:41.731Z,5.93
2023-03-10T15:54:45.174Z,6.70
2023-03-10T15:59:48.846Z,5.13
2023-03-10T16:04:53.930Z,4.77
2023-03-10T16:09:59.816Z,5.47
2023-03-10T16:15:03.630Z,6.40
2023-03-10T16:20:12.376Z,10.03
2023-03-10T16:25:17.956Z,9.55
2023-03-10T16:30:22.504Z,6.50
2023-03-10T16:35:27.425Z,10.32
2023-03-10T16:40:30.977Z,6.53
2023-03-10T16:45:34.757Z,8.33
2023-03-10T16:50:39.566Z,15.67
2023-03-10T17:00:46.222Z,6.93
2023-03-10T17:05:54.020Z,9.13
2023-03-10T17:10:57.480Z,8.53
2023-03-10T17:16:01.682Z,8.93
2023-03-10T17:21:14.125Z,22.88
2023-03-10T17:26:17.961Z,12.00
2023-03-10T17:31:23.864Z,9.40
2023-03-10T17:36:29.597Z,11.93
2023-03-10T17:41:34.402Z,12.43
2023-03-10T17:46:37.949Z,15.70
2023-03-10T17:51:44.623Z,11.90
2023-03-10T17:56:48.640Z,9.20
2023-03-10T18:01:52.330Z,15.07
2023-03-10T18:06:57.443Z,12.67
2023-03-10T18:12:01.107Z,12.27
2023-03-10T18:17:04.587Z,12.10
2023-03-10T18:22:09.634Z,12.87
2023-03-10T18:27:13.105Z,13.90
2023-03-10T18:32:16.518Z,10.17
2023-03-10T18:37:21.622Z,10.10
2023-03-10T18:42:26.693Z,11.80
2023-03-10T18:47:30.259Z,10.10
2023-03-10T18:52:35.115Z,11.20
2023-03-10T18:57:38.905Z,9.73
2023-03-10T19:02:42.439Z,14.77
2023-03-10T19:07:47.713Z,15.00
2023-03-10T19:12:51.342Z,11.83
2023-03-10T19:17:54.831Z,10.77
2023-03-10T19:22:59.857Z,11.40
2023-03-10T19:28:03.405Z,12.10
2023-03-10T19:33:06.940Z,13.77
2023-03-10T19:38:11.957Z,14.60
2023-03-10T19:43:15.514Z,15.70
2023-03-10T19:48:18.950Z,10.70
2023-03-10T19:53:24.098Z,11.67
2023-03-10T19:58:28.260Z,10.57
2023-03-10T20:03:34.306Z,12.10
2023-03-10T20:08:39.353Z,10.50
2023-03-10T20:13:44.372Z,12.03
2023-03-10T20:18:47.772Z,10.20
2023-03-10T20:23:55.445Z,10.13
2023-03-10T20:29:01.462Z,9.50
2023-03-10T20:34:07.061Z,12.07
2023-03-10T20:39:12.089Z,23.33
2023-03-10T20:44:15.874Z,22.97
2023-03-10T20:49:19.326Z,18.20
2023-03-10T20:54:24.302Z,14.67
2023-03-10T20:59:27.704Z,13.60
2023-03-10T21:04:31.113Z,15.77
2023-03-10T21:09:36.069Z,14.60
2023-03-10T21:14:39.561Z,10.60
2023-03-10T21:19:43.032Z,12.57
2023-03-10T21:24:47.937Z,9.23
2023-03-10T21:29:51.722Z,9.90
2023-03-10T21:34:55.312Z,7.93
2023-03-10T21:40:00.163Z,8.80
2023-03-10T21:45:03.968Z,10.50
2023-03-10T21:50:08.806Z,14.30
2023-03-10T21:55:19.714Z,10.63
2023-03-10T22:00:24.755Z,9.07
2023-03-10T22:05:28.203Z,11.53
2023-03-10T22:10:33.121Z,8.97
2023-03-10T22:15:36.664Z,10.63
2023-03-10T22:20:40.172Z,9.97
2023-03-10T22:25:44.964Z,8.47
2023-03-10T22:30:48.461Z,9.10
2023-03-10T22:35:52.797Z,11.97
2023-03-10T22:40:57.864Z,10.70
2023-03-10T22:46:08.838Z,14.70
2023-03-10T22:51:18.307Z,13.53
2023-03-10T22:56:23.131Z,14.37
2023-03-10T23:01:26.714Z,13.67
2023-03-10T23:06:30.291Z,13.00
2023-03-10T23:11:35.171Z,16.27
2023-03-10T23:16:38.811Z,14.30
2023-03-10T23:21:42.240Z,14.65
2023-03-10T23:26:47.003Z,17.37
2023-03-10T23:36:55.983Z,18.87
2023-03-10T23:42:00.756Z,17.70
2023-03-10T23:47:04.327Z,17.27
2023-03-10T23:52:08.277Z,16.77
2023-03-10T23:57:13.281Z,17.63
